Aérodrome :
LOGIN :

S'inscrire | Disclaimer

   EN    FR    IT 

 










Légende :    VFR   VFR Marginal   IFR   IFR Intensif   IFR Très Intensif
Visi : 
Plafond : 
>= 8 km
>= 3000ft
5 à 8 km
1000 à 3000 ft
1500m à 5 km
500 à 1000 ft
800 à 1500m
200 à 500 ft
< 800m
< 200 ft
Symboles :   Orages  Brouillard  Fortes neiges  Fortes précipitations  Vent > 20 kt
SIGMETs :   Divers  Orages  Givrage  Turbulence  Onde Orograph.  Cendres Volcan.







- Altitude de l'aérodrome : 779 ft
- Code IATA : CMF
- Voir les cartes d'approche


LFLB - Chambery / Aix-Les-Bains

DERNIER METAR :
  • 261730Z AUTO 16008KT 9999 BKN026 OVC031 08/04 Q1011 NOSIG

METARs EXPIRÉS :
  • 261700Z AUTO 17006KT 9999 BKN026 OVC033 09/05 Q1011 NOSIG
  • 261630Z AUTO 06003KT 030V120 9999 OVC025 09/04 Q1011 NOSIG
  • 261600Z AUTO 02007KT 9999 BKN023 BKN028 09/04 Q1010 NOSIG
  • 261530Z AUTO 02008KT 9999 OVC024 09/04 Q1010 NOSIG
  • 261500Z AUTO 03007KT 360V060 9999 BKN025 OVC066 10/05 Q1010 NOSIG
  • 261430Z AUTO 03004KT 340V080 9999 SCT022 BKN028 BKN046 10/06 Q1010 NOSIG

TAF AMD TAF LFLB
Valide du 26 à 16h jusqu'au 27 à 12h UTC


261649Z 2616/2712 02005KT 9999 BKN023
Pas de NOTAMs connus pour ce terrain.



MET'MAP, la Météo Aéronautique d'un coup d'oeil ! - Copyright ORBIFLY Décembre 2007 - Disclaimer

ORBIFLY MET'MAP TEAM :

Programmation & Développement : Alexandra Zaïnal
Conception & Développement : Baudouin d'Aumeries
Co-Programmation & Développement : Marc-Olivier Méhu
Soutien technique & logistique : Manuel Goepfert

Contact : metmap@orbifly.com




SOURCES & CREDITS :

   NOAA